sensor_id;sensor_type;location;lat;lon;timestamp;pressure;altitude;pressure_sealevel;temperature
21210;BMP180;10762;42.206;25.326;2024-03-02T00:02:23;99134.00;;;14.10
21210;BMP180;10762;42.206;25.326;2024-03-02T00:04:50;99125.00;;;14.10
21210;BMP180;10762;42.206;25.326;2024-03-02T00:07:16;99132.00;;;14.00
21210;BMP180;10762;42.206;25.326;2024-03-02T00:09:42;99116.00;;;14.00
21210;BMP180;10762;42.206;25.326;2024-03-02T00:12:09;99126.00;;;14.00
21210;BMP180;10762;42.206;25.326;2024-03-02T00:14:37;99113.00;;;13.90
21210;BMP180;10762;42.206;25.326;2024-03-02T00:17:03;99113.00;;;13.90
21210;BMP180;10762;42.206;25.326;2024-03-02T00:19:29;99115.00;;;13.90
21210;BMP180;10762;42.206;25.326;2024-03-02T00:21:55;99113.00;;;13.80
21210;BMP180;10762;42.206;25.326;2024-03-02T00:24:32;99113.00;;;13.90
21210;BMP180;10762;42.206;25.326;2024-03-02T00:26:59;99114.00;;;13.80
21210;BMP180;10762;42.206;25.326;2024-03-02T00:29:25;99099.00;;;13.80
21210;BMP180;10762;42.206;25.326;2024-03-02T00:31:53;99095.00;;;13.90
21210;BMP180;10762;42.206;25.326;2024-03-02T00:34:21;99106.00;;;13.90
21210;BMP180;10762;42.206;25.326;2024-03-02T00:36:47;99101.00;;;13.90
21210;BMP180;10762;42.206;25.326;2024-03-02T00:39:14;99096.00;;;13.90
21210;BMP180;10762;42.206;25.326;2024-03-02T00:41:41;99094.00;;;13.90
21210;BMP180;10762;42.206;25.326;2024-03-02T00:44:12;99096.00;;;13.90
21210;BMP180;10762;42.206;25.326;2024-03-02T00:46:39;99087.00;;;13.90
21210;BMP180;10762;42.206;25.326;2024-03-02T00:49:11;99086.00;;;13.90
21210;BMP180;10762;42.206;25.326;2024-03-02T00:51:38;99094.00;;;13.90
21210;BMP180;10762;42.206;25.326;2024-03-02T00:54:05;99081.00;;;13.90
21210;BMP180;10762;42.206;25.326;2024-03-02T00:56:32;99091.00;;;13.90
21210;BMP180;10762;42.206;25.326;2024-03-02T00:58:58;99084.00;;;13.90
21210;BMP180;10762;42.206;25.326;2024-03-02T01:01:24;99087.00;;;13.90
21210;BMP180;10762;42.206;25.326;2024-03-02T01:03:50;99075.00;;;13.90
21210;BMP180;10762;42.206;25.326;2024-03-02T01:06:16;99065.00;;;13.90
21210;BMP180;10762;42.206;25.326;2024-03-02T01:08:43;99070.00;;;13.90
21210;BMP180;10762;42.206;25.326;2024-03-02T01:11:09;99062.00;;;13.90
21210;BMP180;10762;42.206;25.326;2024-03-02T01:13:35;99067.00;;;13.90
21210;BMP180;10762;42.206;25.326;2024-03-02T01:16:01;99072.00;;;13.90
21210;BMP180;10762;42.206;25.326;2024-03-02T01:18:28;99075.00;;;13.90
21210;BMP180;10762;42.206;25.326;2024-03-02T01:20:54;99089.00;;;13.90
21210;BMP180;10762;42.206;25.326;2024-03-02T01:23:23;99082.00;;;14.00
21210;BMP180;10762;42.206;25.326;2024-03-02T01:25:49;99085.00;;;14.10
21210;BMP180;10762;42.206;25.326;2024-03-02T01:28:16;99072.00;;;14.10
21210;BMP180;10762;42.206;25.326;2024-03-02T01:30:42;99063.00;;;14.10
21210;BMP180;10762;42.206;25.326;2024-03-02T01:33:08;99064.00;;;14.00
21210;BMP180;10762;42.206;25.326;2024-03-02T01:35:35;99051.00;;;14.00
21210;BMP180;10762;42.206;25.326;2024-03-02T01:38:01;99058.00;;;14.00
21210;BMP180;10762;42.206;25.326;2024-03-02T01:40:27;99060.00;;;14.00
21210;BMP180;10762;42.206;25.326;2024-03-02T01:42:54;99063.00;;;14.00
21210;BMP180;10762;42.206;25.326;2024-03-02T01:45:21;99060.00;;;14.00
21210;BMP180;10762;42.206;25.326;2024-03-02T01:47:47;99063.00;;;14.00
21210;BMP180;10762;42.206;25.326;2024-03-02T01:50:13;99061.00;;;14.00
21210;BMP180;10762;42.206;25.326;2024-03-02T01:52:40;99069.00;;;13.90
21210;BMP180;10762;42.206;25.326;2024-03-02T01:55:06;99060.00;;;13.90
21210;BMP180;10762;42.206;25.326;2024-03-02T01:57:33;99069.00;;;13.90
21210;BMP180;10762;42.206;25.326;2024-03-02T02:00:00;99069.00;;;13.90
21210;BMP180;10762;42.206;25.326;2024-03-02T02:02:26;99064.00;;;14.00
21210;BMP180;10762;42.206;25.326;2024-03-02T02:04:52;99070.00;;;14.00
21210;BMP180;10762;42.206;25.326;2024-03-02T02:07:19;99058.00;;;13.90
21210;BMP180;10762;42.206;25.326;2024-03-02T02:09:45;99054.00;;;13.90
21210;BMP180;10762;42.206;25.326;2024-03-02T02:12:11;99049.00;;;13.90
21210;BMP180;10762;42.206;25.326;2024-03-02T02:14:37;99052.00;;;14.00
21210;BMP180;10762;42.206;25.326;2024-03-02T02:17:05;99052.00;;;13.90
21210;BMP180;10762;42.206;25.326;2024-03-02T02:19:31;99053.00;;;13.90
21210;BMP180;10762;42.206;25.326;2024-03-02T02:21:57;99049.00;;;13.90
21210;BMP180;10762;42.206;25.326;2024-03-02T02:24:23;99054.00;;;13.90
21210;BMP180;10762;42.206;25.326;2024-03-02T02:26:50;99050.00;;;14.00
21210;BMP180;10762;42.206;25.326;2024-03-02T02:29:16;99051.00;;;14.00
21210;BMP180;10762;42.206;25.326;2024-03-02T02:31:42;99036.00;;;14.00
21210;BMP180;10762;42.206;25.326;2024-03-02T02:34:08;99049.00;;;14.00
21210;BMP180;10762;42.206;25.326;2024-03-02T02:36:36;99036.00;;;13.90
21210;BMP180;10762;42.206;25.326;2024-03-02T02:39:03;99047.00;;;14.00
21210;BMP180;10762;42.206;25.326;2024-03-02T02:41:30;99042.00;;;13.90
21210;BMP180;10762;42.206;25.326;2024-03-02T02:43:56;99038.00;;;13.90
21210;BMP180;10762;42.206;25.326;2024-03-02T02:46:22;99047.00;;;13.90
21210;BMP180;10762;42.206;25.326;2024-03-02T02:48:48;99031.00;;;13.80
21210;BMP180;10762;42.206;25.326;2024-03-02T02:51:14;99028.00;;;13.80
21210;BMP180;10762;42.206;25.326;2024-03-02T02:53:40;99032.00;;;13.90
21210;BMP180;10762;42.206;25.326;2024-03-02T02:56:06;99032.00;;;13.80
21210;BMP180;10762;42.206;25.326;2024-03-02T02:58:32;99032.00;;;13.80
21210;BMP180;10762;42.206;25.326;2024-03-02T03:00:58;99034.00;;;13.90
21210;BMP180;10762;42.206;25.326;2024-03-02T03:03:24;99028.00;;;13.90
21210;BMP180;10762;42.206;25.326;2024-03-02T03:05:50;99034.00;;;13.90
21210;BMP180;10762;42.206;25.326;2024-03-02T03:08:16;99024.00;;;13.90
21210;BMP180;10762;42.206;25.326;2024-03-02T03:10:42;99024.00;;;13.90
21210;BMP180;10762;42.206;25.326;2024-03-02T03:13:09;99023.00;;;13.90
21210;BMP180;10762;42.206;25.326;2024-03-02T03:15:35;99031.00;;;13.90
21210;BMP180;10762;42.206;25.326;2024-03-02T03:18:02;99029.00;;;13.80
21210;BMP180;10762;42.206;25.326;2024-03-02T03:20:29;99033.00;;;13.90
21210;BMP180;10762;42.206;25.326;2024-03-02T03:22:56;99043.00;;;13.90
21210;BMP180;10762;42.206;25.326;2024-03-02T03:25:22;99048.00;;;13.90
21210;BMP180;10762;42.206;25.326;2024-03-02T03:27:48;99052.00;;;13.90
21210;BMP180;10762;42.206;25.326;2024-03-02T03:30:14;99043.00;;;14.00
21210;BMP180;10762;42.206;25.326;2024-03-02T03:32:40;99031.00;;;14.00
21210;BMP180;10762;42.206;25.326;2024-03-02T03:35:07;99038.00;;;13.90
21210;BMP180;10762;42.206;25.326;2024-03-02T03:37:33;99034.00;;;13.90
21210;BMP180;10762;42.206;25.326;2024-03-02T03:39:59;99028.00;;;13.80
21210;BMP180;10762;42.206;25.326;2024-03-02T03:42:25;99025.00;;;13.80
21210;BMP180;10762;42.206;25.326;2024-03-02T03:44:51;99022.00;;;13.90
21210;BMP180;10762;42.206;25.326;2024-03-02T03:47:18;99029.00;;;13.90
21210;BMP180;10762;42.206;25.326;2024-03-02T03:49:44;99015.00;;;13.90
21210;BMP180;10762;42.206;25.326;2024-03-02T03:52:10;99020.00;;;13.90
21210;BMP180;10762;42.206;25.326;2024-03-02T03:54:36;99026.00;;;13.90
21210;BMP180;10762;42.206;25.326;2024-03-02T03:57:04;99027.00;;;13.90
21210;BMP180;10762;42.206;25.326;2024-03-02T03:59:30;99035.00;;;13.90
21210;BMP180;10762;42.206;25.326;2024-03-02T04:01:56;99034.00;;;13.80
21210;BMP180;10762;42.206;25.326;2024-03-02T04:04:22;99026.00;;;13.80
21210;BMP180;10762;42.206;25.326;2024-03-02T04:06:48;99028.00;;;13.90
21210;BMP180;10762;42.206;25.326;2024-03-02T04:09:14;99026.00;;;13.90
21210;BMP180;10762;42.206;25.326;2024-03-02T04:11:40;99031.00;;;13.90
21210;BMP180;10762;42.206;25.326;2024-03-02T04:14:06;99038.00;;;13.90
21210;BMP180;10762;42.206;25.326;2024-03-02T04:16:32;99031.00;;;13.90
21210;BMP180;10762;42.206;25.326;2024-03-02T04:18:59;99031.00;;;13.80
21210;BMP180;10762;42.206;25.326;2024-03-02T04:21:25;99023.00;;;13.80
21210;BMP180;10762;42.206;25.326;2024-03-02T04:23:51;99032.00;;;13.80
21210;BMP180;10762;42.206;25.326;2024-03-02T04:26:17;99032.00;;;13.80
21210;BMP180;10762;42.206;25.326;2024-03-02T04:28:47;99021.00;;;13.80
21210;BMP180;10762;42.206;25.326;2024-03-02T04:31:14;99024.00;;;13.80
21210;BMP180;10762;42.206;25.326;2024-03-02T04:33:40;99020.00;;;13.70
21210;BMP180;10762;42.206;25.326;2024-03-02T04:36:06;99022.00;;;13.80
21210;BMP180;10762;42.206;25.326;2024-03-02T04:38:35;99018.00;;;13.70
21210;BMP180;10762;42.206;25.326;2024-03-02T04:41:01;99015.00;;;13.70
21210;BMP180;10762;42.206;25.326;2024-03-02T04:43:27;99022.00;;;13.70
21210;BMP180;10762;42.206;25.326;2024-03-02T04:45:53;99030.00;;;13.70
21210;BMP180;10762;42.206;25.326;2024-03-02T04:48:19;99040.00;;;13.80
21210;BMP180;10762;42.206;25.326;2024-03-02T04:50:47;99034.00;;;13.80
21210;BMP180;10762;42.206;25.326;2024-03-02T04:53:13;99037.00;;;13.80
21210;BMP180;10762;42.206;25.326;2024-03-02T04:55:40;99034.00;;;13.80
21210;BMP180;10762;42.206;25.326;2024-03-02T04:58:06;99047.00;;;13.80
21210;BMP180;10762;42.206;25.326;2024-03-02T05:00:32;99051.00;;;13.80
21210;BMP180;10762;42.206;25.326;2024-03-02T05:02:58;99058.00;;;13.90
21210;BMP180;10762;42.206;25.326;2024-03-02T05:05:25;99053.00;;;13.90
21210;BMP180;10762;42.206;25.326;2024-03-02T05:07:51;99055.00;;;13.90
21210;BMP180;10762;42.206;25.326;2024-03-02T05:10:17;99055.00;;;14.00
21210;BMP180;10762;42.206;25.326;2024-03-02T05:12:43;99056.00;;;14.00
21210;BMP180;10762;42.206;25.326;2024-03-02T05:15:13;99074.00;;;13.90
21210;BMP180;10762;42.206;25.326;2024-03-02T05:17:40;99060.00;;;14.00
21210;BMP180;10762;42.206;25.326;2024-03-02T05:20:06;99062.00;;;14.00
21210;BMP180;10762;42.206;25.326;2024-03-02T05:22:36;99053.00;;;14.00
21210;BMP180;10762;42.206;25.326;2024-03-02T05:25:05;99054.00;;;13.90
21210;BMP180;10762;42.206;25.326;2024-03-02T05:27:31;99058.00;;;13.90
21210;BMP180;10762;42.206;25.326;2024-03-02T05:29:59;99055.00;;;13.90
21210;BMP180;10762;42.206;25.326;2024-03-02T05:32:25;99066.00;;;13.90
21210;BMP180;10762;42.206;25.326;2024-03-02T05:34:51;99052.00;;;13.90
21210;BMP180;10762;42.206;25.326;2024-03-02T05:37:17;99044.00;;;13.90
21210;BMP180;10762;42.206;25.326;2024-03-02T05:39:43;99034.00;;;13.90
21210;BMP180;10762;42.206;25.326;2024-03-02T05:42:10;99039.00;;;13.90
21210;BMP180;10762;42.206;25.326;2024-03-02T05:44:36;99038.00;;;13.90
21210;BMP180;10762;42.206;25.326;2024-03-02T05:47:02;99058.00;;;13.90
21210;BMP180;10762;42.206;25.326;2024-03-02T05:49:29;99064.00;;;13.90
21210;BMP180;10762;42.206;25.326;2024-03-02T05:51:55;99033.00;;;13.90
21210;BMP180;10762;42.206;25.326;2024-03-02T05:54:21;99065.00;;;13.90
21210;BMP180;10762;42.206;25.326;2024-03-02T05:56:47;99058.00;;;13.90
21210;BMP180;10762;42.206;25.326;2024-03-02T05:59:13;99040.00;;;13.90
21210;BMP180;10762;42.206;25.326;2024-03-02T06:01:40;99039.00;;;13.90
21210;BMP180;10762;42.206;25.326;2024-03-02T06:04:06;99055.00;;;13.90
21210;BMP180;10762;42.206;25.326;2024-03-02T06:06:33;99028.00;;;13.90
21210;BMP180;10762;42.206;25.326;2024-03-02T06:09:00;99050.00;;;13.90
21210;BMP180;10762;42.206;25.326;2024-03-02T06:11:26;99057.00;;;13.90
21210;BMP180;10762;42.206;25.326;2024-03-02T06:13:52;99068.00;;;13.90
21210;BMP180;10762;42.206;25.326;2024-03-02T06:16:18;99078.00;;;14.00
21210;BMP180;10762;42.206;25.326;2024-03-02T06:18:44;99066.00;;;14.00
21210;BMP180;10762;42.206;25.326;2024-03-02T06:21:10;99063.00;;;14.00
21210;BMP180;10762;42.206;25.326;2024-03-02T06:23:36;99061.00;;;14.10
21210;BMP180;10762;42.206;25.326;2024-03-02T06:26:02;99066.00;;;14.10
21210;BMP180;10762;42.206;25.326;2024-03-02T06:28:29;99108.00;;;14.10
21210;BMP180;10762;42.206;25.326;2024-03-02T06:30:55;99101.00;;;14.10
21210;BMP180;10762;42.206;25.326;2024-03-02T06:33:21;99095.00;;;14.10
21210;BMP180;10762;42.206;25.326;2024-03-02T06:35:47;99093.00;;;14.10
21210;BMP180;10762;42.206;25.326;2024-03-02T06:38:14;99087.00;;;14.10
21210;BMP180;10762;42.206;25.326;2024-03-02T06:40:41;99091.00;;;14.10
21210;BMP180;10762;42.206;25.326;2024-03-02T06:43:07;99089.00;;;14.20
21210;BMP180;10762;42.206;25.326;2024-03-02T06:45:33;99095.00;;;14.20
21210;BMP180;10762;42.206;25.326;2024-03-02T06:48:00;99089.00;;;14.20
21210;BMP180;10762;42.206;25.326;2024-03-02T06:50:26;99067.00;;;14.20
21210;BMP180;10762;42.206;25.326;2024-03-02T06:52:52;99078.00;;;14.20
21210;BMP180;10762;42.206;25.326;2024-03-02T06:55:18;99075.00;;;14.20
21210;BMP180;10762;42.206;25.326;2024-03-02T06:57:44;99073.00;;;14.30
21210;BMP180;10762;42.206;25.326;2024-03-02T07:00:11;99057.00;;;14.30
21210;BMP180;10762;42.206;25.326;2024-03-02T07:02:37;99061.00;;;14.30
21210;BMP180;10762;42.206;25.326;2024-03-02T07:05:03;99074.00;;;14.30
21210;BMP180;10762;42.206;25.326;2024-03-02T07:07:30;99083.00;;;14.30
21210;BMP180;10762;42.206;25.326;2024-03-02T07:09:56;99083.00;;;14.30
21210;BMP180;10762;42.206;25.326;2024-03-02T07:12:22;99076.00;;;14.30
21210;BMP180;10762;42.206;25.326;2024-03-02T07:14:48;99083.00;;;14.30
21210;BMP180;10762;42.206;25.326;2024-03-02T07:17:30;99076.00;;;14.30
21210;BMP180;10762;42.206;25.326;2024-03-02T07:19:56;99071.00;;;14.30
21210;BMP180;10762;42.206;25.326;2024-03-02T07:22:22;99076.00;;;14.40
21210;BMP180;10762;42.206;25.326;2024-03-02T07:24:48;99083.00;;;14.40
21210;BMP180;10762;42.206;25.326;2024-03-02T07:27:15;99094.00;;;14.40
21210;BMP180;10762;42.206;25.326;2024-03-02T07:29:41;99095.00;;;14.50
21210;BMP180;10762;42.206;25.326;2024-03-02T07:32:08;99090.00;;;14.60
21210;BMP180;10762;42.206;25.326;2024-03-02T07:34:34;99084.00;;;14.60
21210;BMP180;10762;42.206;25.326;2024-03-02T07:37:00;99068.00;;;14.60
21210;BMP180;10762;42.206;25.326;2024-03-02T07:39:27;99090.00;;;14.60
21210;BMP180;10762;42.206;25.326;2024-03-02T07:41:53;99095.00;;;14.60
21210;BMP180;10762;42.206;25.326;2024-03-02T07:44:19;99084.00;;;14.60
21210;BMP180;10762;42.206;25.326;2024-03-02T07:46:46;99082.00;;;14.60
21210;BMP180;10762;42.206;25.326;2024-03-02T07:49:12;99084.00;;;14.70
21210;BMP180;10762;42.206;25.326;2024-03-02T07:51:42;99079.00;;;14.60
21210;BMP180;10762;42.206;25.326;2024-03-02T07:54:08;99077.00;;;14.60
21210;BMP180;10762;42.206;25.326;2024-03-02T07:56:34;99075.00;;;14.60
21210;BMP180;10762;42.206;25.326;2024-03-02T07:59:01;99077.00;;;14.70
21210;BMP180;10762;42.206;25.326;2024-03-02T08:01:28;99066.00;;;14.70
21210;BMP180;10762;42.206;25.326;2024-03-02T08:03:56;99069.00;;;14.80
21210;BMP180;10762;42.206;25.326;2024-03-02T08:06:24;99051.00;;;14.80
21210;BMP180;10762;42.206;25.326;2024-03-02T08:08:57;99068.00;;;14.80
21210;BMP180;10762;42.206;25.326;2024-03-02T08:11:23;99090.00;;;14.90
21210;BMP180;10762;42.206;25.326;2024-03-02T08:13:49;99102.00;;;14.90
21210;BMP180;10762;42.206;25.326;2024-03-02T08:16:16;99095.00;;;14.90
21210;BMP180;10762;42.206;25.326;2024-03-02T08:18:44;99099.00;;;14.90
21210;BMP180;10762;42.206;25.326;2024-03-02T08:21:10;99096.00;;;14.90
21210;BMP180;10762;42.206;25.326;2024-03-02T08:23:36;99088.00;;;14.80
21210;BMP180;10762;42.206;25.326;2024-03-02T08:26:04;99102.00;;;14.90
21210;BMP180;10762;42.206;25.326;2024-03-02T08:28:30;99095.00;;;15.00
21210;BMP180;10762;42.206;25.326;2024-03-02T08:30:57;99070.00;;;15.00
21210;BMP180;10762;42.206;25.326;2024-03-02T08:33:23;99070.00;;;15.10
21210;BMP180;10762;42.206;25.326;2024-03-02T08:35:49;99062.00;;;15.20
21210;BMP180;10762;42.206;25.326;2024-03-02T08:38:15;99070.00;;;15.20
21210;BMP180;10762;42.206;25.326;2024-03-02T08:40:41;99074.00;;;15.30
21210;BMP180;10762;42.206;25.326;2024-03-02T08:43:07;99078.00;;;15.50
21210;BMP180;10762;42.206;25.326;2024-03-02T08:45:33;99089.00;;;15.50
21210;BMP180;10762;42.206;25.326;2024-03-02T08:48:00;99072.00;;;15.60
21210;BMP180;10762;42.206;25.326;2024-03-02T08:50:26;99055.00;;;15.60
21210;BMP180;10762;42.206;25.326;2024-03-02T08:52:52;99068.00;;;15.60
21210;BMP180;10762;42.206;25.326;2024-03-02T08:55:18;99060.00;;;15.60
21210;BMP180;10762;42.206;25.326;2024-03-02T08:57:44;99069.00;;;15.60
21210;BMP180;10762;42.206;25.326;2024-03-02T09:00:10;99065.00;;;15.60
21210;BMP180;10762;42.206;25.326;2024-03-02T09:02:37;99068.00;;;15.60
21210;BMP180;10762;42.206;25.326;2024-03-02T09:05:03;99086.00;;;15.60
21210;BMP180;10762;42.206;25.326;2024-03-02T09:07:30;99082.00;;;15.60
21210;BMP180;10762;42.206;25.326;2024-03-02T09:09:56;99092.00;;;15.70
21210;BMP180;10762;42.206;25.326;2024-03-02T09:12:22;99103.00;;;15.70
21210;BMP180;10762;42.206;25.326;2024-03-02T09:14:48;99101.00;;;15.60
21210;BMP180;10762;42.206;25.326;2024-03-02T09:17:14;99106.00;;;15.50
21210;BMP180;10762;42.206;25.326;2024-03-02T09:19:40;99108.00;;;15.50
21210;BMP180;10762;42.206;25.326;2024-03-02T09:22:06;99106.00;;;15.40
21210;BMP180;10762;42.206;25.326;2024-03-02T09:24:32;99103.00;;;15.40
21210;BMP180;10762;42.206;25.326;2024-03-02T09:27:01;99092.00;;;15.40
21210;BMP180;10762;42.206;25.326;2024-03-02T09:29:27;99080.00;;;15.50
21210;BMP180;10762;42.206;25.326;2024-03-02T09:31:55;99086.00;;;15.50
21210;BMP180;10762;42.206;25.326;2024-03-02T09:34:21;99088.00;;;15.60
21210;BMP180;10762;42.206;25.326;2024-03-02T09:36:48;99094.00;;;15.80
21210;BMP180;10762;42.206;25.326;2024-03-02T09:39:14;99100.00;;;15.80
21210;BMP180;10762;42.206;25.326;2024-03-02T09:41:40;99105.00;;;15.80
21210;BMP180;10762;42.206;25.326;2024-03-02T09:44:06;99105.00;;;15.70
21210;BMP180;10762;42.206;25.326;2024-03-02T09:46:32;99087.00;;;15.70
21210;BMP180;10762;42.206;25.326;2024-03-02T09:48:59;99089.00;;;15.70
21210;BMP180;10762;42.206;25.326;2024-03-02T09:51:25;99090.00;;;15.60
21210;BMP180;10762;42.206;25.326;2024-03-02T09:53:51;99095.00;;;15.60
21210;BMP180;10762;42.206;25.326;2024-03-02T09:56:17;99089.00;;;15.60
21210;BMP180;10762;42.206;25.326;2024-03-02T09:58:44;99087.00;;;15.70
21210;BMP180;10762;42.206;25.326;2024-03-02T10:01:10;99091.00;;;15.70
21210;BMP180;10762;42.206;25.326;2024-03-02T10:03:36;99087.00;;;15.70
21210;BMP180;10762;42.206;25.326;2024-03-02T10:06:18;99079.00;;;15.70
21210;BMP180;10762;42.206;25.326;2024-03-02T10:08:44;99075.00;;;15.70
21210;BMP180;10762;42.206;25.326;2024-03-02T10:11:10;99078.00;;;15.70
21210;BMP180;10762;42.206;25.326;2024-03-02T10:13:36;99075.00;;;15.70
21210;BMP180;10762;42.206;25.326;2024-03-02T10:16:11;99085.00;;;15.90
21210;BMP180;10762;42.206;25.326;2024-03-02T10:18:37;99085.00;;;16.00
21210;BMP180;10762;42.206;25.326;2024-03-02T10:21:15;99087.00;;;16.00
21210;BMP180;10762;42.206;25.326;2024-03-02T10:23:41;99089.00;;;16.00
21210;BMP180;10762;42.206;25.326;2024-03-02T10:26:16;99087.00;;;16.00
21210;BMP180;10762;42.206;25.326;2024-03-02T10:28:46;99085.00;;;16.00
21210;BMP180;10762;42.206;25.326;2024-03-02T10:31:13;99086.00;;;15.90
21210;BMP180;10762;42.206;25.326;2024-03-02T10:33:39;99079.00;;;16.00
21210;BMP180;10762;42.206;25.326;2024-03-02T10:36:05;99084.00;;;16.00
21210;BMP180;10762;42.206;25.326;2024-03-02T10:38:32;99076.00;;;16.00
21210;BMP180;10762;42.206;25.326;2024-03-02T10:40:58;99066.00;;;16.00
21210;BMP180;10762;42.206;25.326;2024-03-02T10:43:25;99069.00;;;16.00
21210;BMP180;10762;42.206;25.326;2024-03-02T10:45:52;99060.00;;;16.20
21210;BMP180;10762;42.206;25.326;2024-03-02T10:48:18;99054.00;;;16.30
21210;BMP180;10762;42.206;25.326;2024-03-02T10:50:45;99040.00;;;16.40
21210;BMP180;10762;42.206;25.326;2024-03-02T10:53:11;99026.00;;;16.60
21210;BMP180;10762;42.206;25.326;2024-03-02T10:55:37;99018.00;;;16.70
21210;BMP180;10762;42.206;25.326;2024-03-02T10:58:04;99027.00;;;16.90
21210;BMP180;10762;42.206;25.326;2024-03-02T11:00:33;99043.00;;;16.90
21210;BMP180;10762;42.206;25.326;2024-03-02T11:03:06;99039.00;;;16.90
21210;BMP180;10762;42.206;25.326;2024-03-02T11:05:44;99035.00;;;16.90
21210;BMP180;10762;42.206;25.326;2024-03-02T11:08:16;99040.00;;;16.90
21210;BMP180;10762;42.206;25.326;2024-03-02T11:10:49;99039.00;;;16.90
21210;BMP180;10762;42.206;25.326;2024-03-02T11:13:17;99032.00;;;16.90
21210;BMP180;10762;42.206;25.326;2024-03-02T11:15:45;99029.00;;;17.00
21210;BMP180;10762;42.206;25.326;2024-03-02T11:18:12;99017.00;;;16.90
21210;BMP180;10762;42.206;25.326;2024-03-02T11:20:38;99004.00;;;16.70
21210;BMP180;10762;42.206;25.326;2024-03-02T11:23:05;99006.00;;;16.70
21210;BMP180;10762;42.206;25.326;2024-03-02T11:25:32;99009.00;;;16.60
21210;BMP180;10762;42.206;25.326;2024-03-02T11:27:59;99017.00;;;16.60
21210;BMP180;10762;42.206;25.326;2024-03-02T11:33:00;99011.00;;;16.50
21210;BMP180;10762;42.206;25.326;2024-03-02T11:35:29;99013.00;;;16.50
21210;BMP180;10762;42.206;25.326;2024-03-02T11:37:55;99013.00;;;16.50
21210;BMP180;10762;42.206;25.326;2024-03-02T11:40:24;99006.00;;;16.50
21210;BMP180;10762;42.206;25.326;2024-03-02T11:42:51;99005.00;;;16.50
21210;BMP180;10762;42.206;25.326;2024-03-02T11:45:17;99000.00;;;16.50
21210;BMP180;10762;42.206;25.326;2024-03-02T11:47:51;98990.00;;;16.60
21210;BMP180;10762;42.206;25.326;2024-03-02T11:52:56;99005.00;;;16.70
21210;BMP180;10762;42.206;25.326;2024-03-02T11:55:25;99000.00;;;16.70
21210;BMP180;10762;42.206;25.326;2024-03-02T11:57:52;98998.00;;;16.80
21210;BMP180;10762;42.206;25.326;2024-03-02T12:00:18;98995.00;;;16.90
21210;BMP180;10762;42.206;25.326;2024-03-02T12:02:48;98991.00;;;17.00
21210;BMP180;10762;42.206;25.326;2024-03-02T12:05:25;98988.00;;;17.10
21210;BMP180;10762;42.206;25.326;2024-03-02T12:07:58;98991.00;;;17.30
21210;BMP180;10762;42.206;25.326;2024-03-02T12:10:25;98994.00;;;17.40
21210;BMP180;10762;42.206;25.326;2024-03-02T12:13:04;98994.00;;;17.40
21210;BMP180;10762;42.206;25.326;2024-03-02T12:15:32;98994.00;;;17.40
21210;BMP180;10762;42.206;25.326;2024-03-02T12:17:59;98990.00;;;17.40
21210;BMP180;10762;42.206;25.326;2024-03-02T12:20:26;98984.00;;;17.50
21210;BMP180;10762;42.206;25.326;2024-03-02T12:22:53;98989.00;;;17.50
21210;BMP180;10762;42.206;25.326;2024-03-02T12:25:20;98997.00;;;17.50
21210;BMP180;10762;42.206;25.326;2024-03-02T12:27:50;98995.00;;;17.50
21210;BMP180;10762;42.206;25.326;2024-03-02T12:30:16;98984.00;;;17.40
21210;BMP180;10762;42.206;25.326;2024-03-02T12:32:43;98991.00;;;17.40
21210;BMP180;10762;42.206;25.326;2024-03-02T12:35:10;98979.00;;;17.50
21210;BMP180;10762;42.206;25.326;2024-03-02T12:37:48;98979.00;;;17.40
21210;BMP180;10762;42.206;25.326;2024-03-02T12:40:14;98986.00;;;17.40
21210;BMP180;10762;42.206;25.326;2024-03-02T12:42:44;98965.00;;;17.40
21210;BMP180;10762;42.206;25.326;2024-03-02T12:45:10;98980.00;;;17.40
21210;BMP180;10762;42.206;25.326;2024-03-02T12:47:37;98993.00;;;17.40
21210;BMP180;10762;42.206;25.326;2024-03-02T12:50:03;98993.00;;;17.30
21210;BMP180;10762;42.206;25.326;2024-03-02T12:52:30;98993.00;;;17.30
21210;BMP180;10762;42.206;25.326;2024-03-02T12:55:01;98995.00;;;17.40
21210;BMP180;10762;42.206;25.326;2024-03-02T12:57:30;98991.00;;;17.40
21210;BMP180;10762;42.206;25.326;2024-03-02T12:59:57;98996.00;;;17.30
21210;BMP180;10762;42.206;25.326;2024-03-02T13:02:23;98991.00;;;17.30
21210;BMP180;10762;42.206;25.326;2024-03-02T13:04:53;98986.00;;;17.30
21210;BMP180;10762;42.206;25.326;2024-03-02T13:07:20;98994.00;;;17.30
21210;BMP180;10762;42.206;25.326;2024-03-02T13:09:49;98992.00;;;17.30
21210;BMP180;10762;42.206;25.326;2024-03-02T13:12:16;99000.00;;;17.30
21210;BMP180;10762;42.206;25.326;2024-03-02T13:14:42;99002.00;;;17.20
21210;BMP180;10762;42.206;25.326;2024-03-02T13:17:08;98997.00;;;17.30
21210;BMP180;10762;42.206;25.326;2024-03-02T13:19:35;98993.00;;;17.30
21210;BMP180;10762;42.206;25.326;2024-03-02T13:22:01;99000.00;;;17.30
21210;BMP180;10762;42.206;25.326;2024-03-02T13:24:30;99000.00;;;17.20
21210;BMP180;10762;42.206;25.326;2024-03-02T13:26:56;99001.00;;;17.10
21210;BMP180;10762;42.206;25.326;2024-03-02T13:29:24;99003.00;;;17.10
21210;BMP180;10762;42.206;25.326;2024-03-02T13:31:50;99002.00;;;17.10
21210;BMP180;10762;42.206;25.326;2024-03-02T13:34:16;99005.00;;;17.10
21210;BMP180;10762;42.206;25.326;2024-03-02T13:36:43;99002.00;;;17.10
21210;BMP180;10762;42.206;25.326;2024-03-02T13:39:09;99000.00;;;17.00
21210;BMP180;10762;42.206;25.326;2024-03-02T13:41:36;99006.00;;;16.90
21210;BMP180;10762;42.206;25.326;2024-03-02T13:44:02;99010.00;;;16.90
21210;BMP180;10762;42.206;25.326;2024-03-02T13:46:28;99007.00;;;16.90
21210;BMP180;10762;42.206;25.326;2024-03-02T13:48:54;99008.00;;;16.90
21210;BMP180;10762;42.206;25.326;2024-03-02T13:51:21;99010.00;;;16.90
21210;BMP180;10762;42.206;25.326;2024-03-02T13:53:47;99016.00;;;16.80
21210;BMP180;10762;42.206;25.326;2024-03-02T13:56:13;99013.00;;;16.80
21210;BMP180;10762;42.206;25.326;2024-03-02T13:58:39;99008.00;;;16.70
21210;BMP180;10762;42.206;25.326;2024-03-02T14:01:05;99009.00;;;16.70